createdAt,value
2023-09-30T00:01:57.357Z,16.64
2023-09-30T00:04:01.348Z,16.65
2023-09-30T00:06:04.877Z,16.61
2023-09-30T00:08:08.008Z,16.53
2023-09-30T00:10:11.486Z,16.58
2023-09-30T00:12:14.289Z,16.46
2023-09-30T00:14:19.340Z,16.44
2023-09-30T00:16:21.118Z,16.38
2023-09-30T00:18:23.877Z,16.33
2023-09-30T00:20:26.951Z,16.39
2023-09-30T00:22:29.654Z,16.39
2023-09-30T00:24:32.472Z,16.47
2023-09-30T00:26:35.189Z,16.37
2023-09-30T00:28:37.943Z,16.36
2023-09-30T00:30:42.154Z,16.44
2023-09-30T00:32:45.041Z,16.23
2023-09-30T00:34:47.781Z,16.14
2023-09-30T00:36:50.599Z,16.08
2023-09-30T00:38:53.359Z,16.20
2023-09-30T00:40:56.059Z,16.16
2023-09-30T00:42:59.805Z,16.16
2023-09-30T00:45:02.448Z,16.12
2023-09-30T00:47:07.093Z,16.19
2023-09-30T00:49:11.297Z,16.01
2023-09-30T00:51:13.128Z,16.06
2023-09-30T00:53:15.850Z,16.16
2023-09-30T00:55:19.664Z,16.21
2023-09-30T00:57:23.279Z,16.27
2023-09-30T00:59:27.642Z,16.32
2023-09-30T01:01:30.531Z,16.24
2023-09-30T01:03:35.647Z,16.27
2023-09-30T01:05:38.606Z,16.24
2023-09-30T01:07:41.360Z,16.07
2023-09-30T01:09:44.411Z,16.04
2023-09-30T01:11:47.153Z,16.02
2023-09-30T01:13:50.638Z,16.13
2023-09-30T01:15:53.435Z,16.02
2023-09-30T01:17:56.235Z,15.96
2023-09-30T01:20:00.036Z,16.10
2023-09-30T01:22:06.918Z,16.08
2023-09-30T01:24:10.079Z,16.08
2023-09-30T01:26:15.639Z,16.09
2023-09-30T01:28:17.544Z,16.10
2023-09-30T01:30:20.421Z,16.07
2023-09-30T01:32:23.287Z,16.08
2023-09-30T01:34:25.927Z,16.10
2023-09-30T01:36:29.697Z,16.05
2023-09-30T01:38:33.760Z,16.15
2023-09-30T01:40:36.509Z,16.10
2023-09-30T01:42:39.535Z,15.93
2023-09-30T01:44:42.259Z,15.99
2023-09-30T01:46:45.106Z,16.05
2023-09-30T01:48:46.959Z,16.09
2023-09-30T01:50:49.999Z,15.84
2023-09-30T01:52:52.658Z,15.97
2023-09-30T01:54:55.998Z,15.95
2023-09-30T01:56:59.764Z,15.95
2023-09-30T01:59:02.567Z,15.76
2023-09-30T02:01:04.724Z,15.77
2023-09-30T02:03:08.359Z,15.71
2023-09-30T02:05:10.660Z,15.66
2023-09-30T02:07:13.414Z,15.64
2023-09-30T02:09:16.094Z,15.60
2023-09-30T02:11:20.158Z,15.74
2023-09-30T02:13:22.867Z,15.70
2023-09-30T02:15:25.591Z,15.48
2023-09-30T02:17:27.470Z,15.30
2023-09-30T02:19:32.667Z,15.28
2023-09-30T02:21:36.720Z,15.26
2023-09-30T02:23:39.466Z,15.32
2023-09-30T02:25:43.099Z,15.23
2023-09-30T02:27:47.162Z,15.24
2023-09-30T02:29:49.924Z,15.31
2023-09-30T02:31:55.876Z,15.28
2023-09-30T02:33:58.865Z,15.06
2023-09-30T02:36:01.740Z,15.19
2023-09-30T02:38:05.430Z,15.21
2023-09-30T02:40:10.779Z,15.24
2023-09-30T02:42:13.782Z,15.01
2023-09-30T02:44:17.831Z,14.79
2023-09-30T02:46:20.722Z,14.71
2023-09-30T02:48:23.537Z,14.87
2023-09-30T02:50:26.288Z,14.90
2023-09-30T02:52:30.047Z,14.89
2023-09-30T02:54:33.301Z,15.04
2023-09-30T02:56:36.259Z,14.94
2023-09-30T02:58:39.648Z,14.92
2023-09-30T03:00:44.536Z,14.98
2023-09-30T03:02:47.307Z,15.01
2023-09-30T03:04:51.469Z,15.20
2023-09-30T03:06:57.319Z,15.24
2023-09-30T03:08:59.941Z,15.08
2023-09-30T03:11:02.998Z,15.16
2023-09-30T03:13:04.799Z,15.12
2023-09-30T03:15:09.762Z,15.07
2023-09-30T03:17:13.873Z,15.19
2023-09-30T03:19:17.654Z,15.20
2023-09-30T03:21:20.968Z,15.23
2023-09-30T03:23:23.744Z,15.33
2023-09-30T03:25:26.612Z,15.18
2023-09-30T03:27:29.264Z,15.18
2023-09-30T03:29:32.323Z,15.09
2023-09-30T03:31:35.155Z,15.19
2023-09-30T03:33:40.266Z,15.27
2023-09-30T03:35:43.177Z,15.29
2023-09-30T03:37:46.196Z,15.29
2023-09-30T03:39:50.428Z,15.20
2023-09-30T03:41:55.321Z,15.13
2023-09-30T03:43:58.421Z,15.14
2023-09-30T03:46:01.970Z,15.16
2023-09-30T03:48:05.390Z,15.29
2023-09-30T03:50:15.748Z,15.20
2023-09-30T03:52:18.970Z,15.10
2023-09-30T03:54:22.347Z,14.98
2023-09-30T03:56:25.078Z,15.12
2023-09-30T03:58:28.015Z,15.17
2023-09-30T04:00:30.684Z,15.17
2023-09-30T04:02:33.458Z,15.32
2023-09-30T04:04:38.205Z,15.14
2023-09-30T04:06:42.350Z,15.14
2023-09-30T04:08:45.199Z,15.25
2023-09-30T04:10:48.142Z,15.41
2023-09-30T04:12:51.004Z,15.40
2023-09-30T04:14:54.106Z,15.25
2023-09-30T04:16:56.839Z,15.16
2023-09-30T04:18:59.606Z,15.21
2023-09-30T04:21:02.496Z,15.20
2023-09-30T04:23:07.762Z,15.15
2023-09-30T04:25:11.930Z,15.20
2023-09-30T04:27:14.667Z,15.14
2023-09-30T04:29:17.365Z,15.11
2023-09-30T04:31:19.710Z,15.12
2023-09-30T04:33:25.542Z,15.13
2023-09-30T04:35:28.327Z,15.10
2023-09-30T04:37:31.121Z,14.75
2023-09-30T04:39:36.763Z,14.90
2023-09-30T04:41:42.305Z,15.24
2023-09-30T04:43:45.399Z,15.01
2023-09-30T04:45:50.797Z,14.90
2023-09-30T04:47:53.907Z,14.91
2023-09-30T04:49:59.286Z,14.88
2023-09-30T04:52:02.306Z,14.80
2023-09-30T04:54:08.142Z,15.17
2023-09-30T04:56:12.173Z,15.05
2023-09-30T04:58:14.817Z,15.13
2023-09-30T05:00:19.652Z,15.08
2023-09-30T05:02:22.482Z,14.91
2023-09-30T05:04:27.056Z,14.92
2023-09-30T05:06:29.875Z,15.23
2023-09-30T05:08:35.723Z,15.23
2023-09-30T05:10:39.534Z,15.14
2023-09-30T05:12:47.626Z,14.95
2023-09-30T05:14:50.642Z,14.99
2023-09-30T05:16:54.227Z,14.89
2023-09-30T05:18:57.007Z,14.88
2023-09-30T05:20:58.790Z,14.84
2023-09-30T05:23:01.440Z,14.84
2023-09-30T05:25:04.604Z,14.86
2023-09-30T05:27:07.724Z,15.00
2023-09-30T05:29:11.742Z,14.90
2023-09-30T05:31:14.550Z,14.87
2023-09-30T05:33:17.773Z,14.78
2023-09-30T05:35:23.422Z,15.01
2023-09-30T05:37:27.285Z,15.02
2023-09-30T05:39:29.942Z,15.11
2023-09-30T05:41:32.833Z,15.19
2023-09-30T05:43:35.615Z,14.94
2023-09-30T05:45:39.771Z,15.23
2023-09-30T05:47:42.794Z,14.78
2023-09-30T05:49:45.525Z,14.82
2023-09-30T05:51:47.687Z,14.90
2023-09-30T05:53:50.522Z,14.98
2023-09-30T05:55:53.249Z,15.22
2023-09-30T05:57:57.017Z,15.29
2023-09-30T05:59:59.846Z,15.26
2023-09-30T06:02:04.656Z,15.28
2023-09-30T06:04:08.029Z,15.40
2023-09-30T06:06:14.913Z,15.36
2023-09-30T06:08:17.647Z,15.34
2023-09-30T06:10:19.956Z,15.46
2023-09-30T06:12:22.821Z,15.33
2023-09-30T06:14:29.117Z,15.47
2023-09-30T06:16:32.914Z,15.50
2023-09-30T06:18:37.013Z,15.37
2023-09-30T06:20:39.770Z,15.40
2023-09-30T06:22:42.515Z,15.51
2023-09-30T06:24:45.250Z,15.71
2023-09-30T06:26:49.782Z,15.79
2023-09-30T06:28:55.339Z,15.82
2023-09-30T06:30:58.200Z,15.73
2023-09-30T06:33:01.704Z,15.59
2023-09-30T06:35:07.357Z,15.50
2023-09-30T06:37:10.189Z,15.30
2023-09-30T06:39:12.927Z,15.38
2023-09-30T06:41:18.011Z,15.44
2023-09-30T06:43:20.662Z,15.59
2023-09-30T06:45:23.421Z,15.51
2023-09-30T06:47:26.253Z,15.56
2023-09-30T06:49:29.094Z,15.56
2023-09-30T06:51:33.464Z,15.68
2023-09-30T06:53:36.224Z,15.80
2023-09-30T06:55:38.935Z,15.97
2023-09-30T06:57:42.217Z,15.59
2023-09-30T06:59:44.963Z,15.68
2023-09-30T07:01:47.690Z,15.59
2023-09-30T07:03:50.729Z,15.98
2023-09-30T07:05:55.234Z,16.02
2023-09-30T07:07:59.784Z,16.04
2023-09-30T07:10:01.499Z,16.08
2023-09-30T07:12:05.545Z,16.20
2023-09-30T07:14:08.294Z,16.39
2023-09-30T07:16:11.334Z,15.86
2023-09-30T07:18:14.181Z,16.37
2023-09-30T07:20:18.080Z,16.21
2023-09-30T07:22:29.787Z,15.87
2023-09-30T07:24:40.622Z,16.52
2023-09-30T07:26:43.390Z,16.35
2023-09-30T07:28:46.080Z,16.37
2023-09-30T07:30:48.811Z,16.74
2023-09-30T07:32:51.427Z,16.50
2023-09-30T07:34:54.365Z,16.48
2023-09-30T07:36:57.534Z,16.64
2023-09-30T07:39:01.838Z,16.21
2023-09-30T07:41:06.417Z,16.12
2023-09-30T07:43:09.852Z,16.22
2023-09-30T07:45:17.858Z,16.72
2023-09-30T07:47:20.626Z,16.29
2023-09-30T07:49:23.307Z,16.53
2023-09-30T07:51:26.076Z,16.31
2023-09-30T07:53:29.055Z,16.47
2023-09-30T07:55:31.831Z,16.67
2023-09-30T07:57:35.965Z,16.22
2023-09-30T07:59:38.749Z,16.47
2023-09-30T08:01:41.948Z,16.61
2023-09-30T08:03:44.799Z,16.39
2023-09-30T08:05:47.730Z,16.51
2023-09-30T08:07:50.458Z,16.14
2023-09-30T08:09:53.263Z,16.50
2023-09-30T08:11:57.317Z,16.74
2023-09-30T08:14:07.380Z,16.93
2023-09-30T08:16:10.172Z,17.56
2023-09-30T08:18:13.079Z,17.47
2023-09-30T08:20:16.009Z,17.51
2023-09-30T08:22:18.701Z,16.89
2023-09-30T08:24:21.442Z,16.69
2023-09-30T08:26:24.483Z,16.57
2023-09-30T08:28:27.248Z,16.62
2023-09-30T08:30:31.832Z,16.68
2023-09-30T08:32:35.537Z,17.09
2023-09-30T08:34:38.394Z,17.67
2023-09-30T08:36:41.085Z,18.02
2023-09-30T08:38:45.085Z,18.08
2023-09-30T08:40:49.469Z,18.18
2023-09-30T08:42:55.043Z,18.92
2023-09-30T08:44:57.954Z,18.32
2023-09-30T08:47:02.302Z,18.86
2023-09-30T08:49:07.077Z,19.64
2023-09-30T08:51:10.246Z,20.15
2023-09-30T08:53:14.826Z,19.63
2023-09-30T08:55:17.923Z,19.82
2023-09-30T08:57:20.656Z,20.38
2023-09-30T08:59:23.778Z,21.47
2023-09-30T09:01:26.071Z,20.86
2023-09-30T09:03:32.762Z,20.40
2023-09-30T09:05:35.820Z,19.65
2023-09-30T09:07:38.678Z,19.37
2023-09-30T09:09:41.347Z,19.89
2023-09-30T09:11:44.029Z,20.35
2023-09-30T09:13:51.871Z,19.81
2023-09-30T09:16:08.884Z,18.97
2023-09-30T09:18:12.653Z,18.18
2023-09-30T09:20:22.056Z,18.66
2023-09-30T09:22:24.888Z,18.34
2023-09-30T09:24:32.011Z,18.56
2023-09-30T09:26:36.218Z,18.98
2023-09-30T09:28:39.781Z,18.08
2023-09-30T09:30:44.784Z,18.76
2023-09-30T09:33:00.573Z,20.77
2023-09-30T09:35:04.596Z,20.56
2023-09-30T09:37:17.658Z,20.68
2023-09-30T09:39:32.685Z,22.36
2023-09-30T09:41:50.807Z,20.97
2023-09-30T09:43:53.516Z,21.12
2023-09-30T09:45:58.163Z,21.52
2023-09-30T09:48:01.581Z,22.80
2023-09-30T09:50:06.164Z,23.74
2023-09-30T09:52:08.288Z,23.22
2023-09-30T09:54:13.523Z,22.07
2023-09-30T09:56:17.562Z,21.60
2023-09-30T09:58:22.787Z,20.67
2023-09-30T10:00:26.545Z,20.35
2023-09-30T10:02:30.125Z,19.95
2023-09-30T10:04:33.151Z,18.68
2023-09-30T10:06:40.677Z,18.76
2023-09-30T10:08:47.091Z,18.30
2023-09-30T10:10:51.497Z,18.27
2023-09-30T10:12:54.315Z,18.72
2023-09-30T10:14:57.118Z,19.87
2023-09-30T10:16:58.997Z,18.94
2023-09-30T10:19:11.118Z,18.75
2023-09-30T10:21:15.193Z,19.20
2023-09-30T10:23:26.861Z,19.59
2023-09-30T10:25:36.611Z,19.38
2023-09-30T10:27:40.783Z,20.72
2023-09-30T10:29:43.943Z,21.53
2023-09-30T10:31:52.341Z,21.52
2023-09-30T10:34:23.335Z,21.70
2023-09-30T10:36:29.672Z,20.90
2023-09-30T10:38:42.640Z,21.06
2023-09-30T10:40:45.294Z,20.90
2023-09-30T10:42:51.239Z,21.58
2023-09-30T10:44:54.036Z,21.75
2023-09-30T10:46:58.388Z,21.10
2023-09-30T10:49:18.545Z,20.30
2023-09-30T10:51:23.008Z,20.70
2023-09-30T10:53:28.254Z,20.87
2023-09-30T10:55:32.596Z,20.69
2023-09-30T10:57:35.651Z,20.69
2023-09-30T10:59:40.054Z,20.04
2023-09-30T11:01:42.840Z,21.01
2023-09-30T11:03:45.918Z,19.78
2023-09-30T11:06:11.336Z,20.54
2023-09-30T11:08:17.307Z,19.35
2023-09-30T11:10:20.303Z,20.05
2023-09-30T11:12:23.334Z,20.00
2023-09-30T11:14:30.008Z,19.50
2023-09-30T11:16:42.303Z,20.20
2023-09-30T11:18:45.072Z,20.52
2023-09-30T11:20:47.890Z,20.33
2023-09-30T11:22:51.561Z,20.16
2023-09-30T11:24:54.441Z,20.36
2023-09-30T11:26:58.036Z,20.17
2023-09-30T11:29:06.338Z,20.20
2023-09-30T11:31:17.033Z,20.85
2023-09-30T11:33:20.222Z,19.80
2023-09-30T11:35:25.973Z,19.24
2023-09-30T11:37:33.429Z,19.51
2023-09-30T11:39:36.156Z,19.84
2023-09-30T11:41:42.462Z,20.43
2023-09-30T11:43:59.476Z,20.53
2023-09-30T11:46:10.211Z,19.77
2023-09-30T11:48:21.958Z,19.58
2023-09-30T11:50:25.576Z,19.42
2023-09-30T11:52:29.490Z,19.63
2023-09-30T11:54:33.369Z,18.98
2023-09-30T11:56:36.184Z,18.90
2023-09-30T11:58:40.513Z,19.10
2023-09-30T12:00:42.509Z,18.91
2023-09-30T12:02:45.267Z,18.82
2023-09-30T12:04:49.663Z,19.09
2023-09-30T12:06:52.839Z,19.18
2023-09-30T12:08:54.987Z,19.14
2023-09-30T12:10:57.782Z,19.26
2023-09-30T12:13:00.497Z,19.28
2023-09-30T12:15:03.843Z,19.45
2023-09-30T12:17:06.632Z,19.64
2023-09-30T12:19:09.806Z,19.73
2023-09-30T12:21:14.727Z,20.64
2023-09-30T12:23:16.506Z,21.75
2023-09-30T12:25:22.613Z,21.08
2023-09-30T12:27:27.350Z,21.19
2023-09-30T12:29:30.284Z,21.67
2023-09-30T12:31:45.983Z,21.92
2023-09-30T12:33:53.247Z,21.47
2023-09-30T12:35:55.350Z,20.56
2023-09-30T12:37:59.434Z,21.50
2023-09-30T12:40:03.215Z,21.35
2023-09-30T12:42:10.044Z,21.54
2023-09-30T12:44:13.125Z,21.58
2023-09-30T12:46:16.133Z,20.69
2023-09-30T12:48:18.884Z,20.78
2023-09-30T12:50:21.591Z,20.49
2023-09-30T12:52:25.200Z,20.63
2023-09-30T12:54:29.346Z,20.60
2023-09-30T12:56:32.885Z,19.69
2023-09-30T12:58:35.569Z,20.31
2023-09-30T13:00:37.447Z,19.68
2023-09-30T13:02:40.704Z,19.60
2023-09-30T13:04:45.634Z,19.64
2023-09-30T13:06:50.146Z,19.37
2023-09-30T13:08:53.804Z,19.75
2023-09-30T13:10:57.958Z,19.54
2023-09-30T13:13:00.739Z,19.68
2023-09-30T13:15:03.921Z,19.76
2023-09-30T13:17:08.393Z,19.62
2023-09-30T13:19:13.103Z,19.91
2023-09-30T13:21:17.113Z,19.83
2023-09-30T13:23:21.225Z,19.65
2023-09-30T13:25:23.370Z,20.61
2023-09-30T13:27:27.451Z,20.39
2023-09-30T13:29:30.203Z,20.55
2023-09-30T13:31:32.970Z,20.48
2023-09-30T13:33:35.788Z,20.32
2023-09-30T13:35:39.343Z,20.51
2023-09-30T13:37:42.576Z,20.98
2023-09-30T13:39:45.739Z,21.08
2023-09-30T13:41:49.101Z,20.88
2023-09-30T13:43:53.562Z,21.04
2023-09-30T13:45:57.353Z,21.21
2023-09-30T13:47:59.461Z,20.43
2023-09-30T13:50:04.751Z,20.08
2023-09-30T13:52:07.860Z,20.18
2023-09-30T13:54:10.621Z,19.76
2023-09-30T13:56:13.381Z,20.00
2023-09-30T13:58:16.023Z,19.70
2023-09-30T14:00:20.364Z,19.77
2023-09-30T14:02:24.050Z,19.74
2023-09-30T14:04:26.999Z,19.59
2023-09-30T14:06:31.161Z,19.54
2023-09-30T14:08:34.017Z,19.73
2023-09-30T14:10:37.138Z,19.84
2023-09-30T14:12:40.339Z,19.57
2023-09-30T14:14:43.572Z,19.52
2023-09-30T14:16:46.700Z,19.76
2023-09-30T14:18:50.990Z,19.59
2023-09-30T14:20:54.091Z,19.38
2023-09-30T14:22:56.963Z,19.31
2023-09-30T14:24:59.831Z,19.42
2023-09-30T14:27:02.886Z,19.38
2023-09-30T14:29:05.775Z,19.47
2023-09-30T14:31:08.950Z,19.44
2023-09-30T14:33:13.232Z,19.40
2023-09-30T14:35:16.822Z,19.42
2023-09-30T14:37:19.570Z,19.55
2023-09-30T14:39:22.423Z,19.49
2023-09-30T14:41:24.243Z,19.58
2023-09-30T14:43:26.955Z,19.58
2023-09-30T14:45:29.989Z,19.61
2023-09-30T14:47:32.847Z,19.70
2023-09-30T14:49:37.058Z,19.47
2023-09-30T14:51:39.218Z,19.63
2023-09-30T14:53:41.935Z,19.58
2023-09-30T14:55:43.792Z,19.71
2023-09-30T14:57:46.586Z,20.01
2023-09-30T14:59:49.373Z,19.58
2023-09-30T15:01:54.327Z,19.63
2023-09-30T15:03:57.806Z,19.63
2023-09-30T15:06:03.008Z,19.55
2023-09-30T15:08:07.220Z,19.67
2023-09-30T15:10:10.844Z,19.24
2023-09-30T15:12:13.576Z,19.07
2023-09-30T15:14:16.287Z,19.37
2023-09-30T15:16:20.786Z,18.99
2023-09-30T15:18:24.319Z,19.13
2023-09-30T15:20:27.109Z,19.09
2023-09-30T15:22:33.457Z,19.00
2023-09-30T15:24:36.195Z,19.00
2023-09-30T15:26:38.095Z,18.85
2023-09-30T15:28:40.794Z,18.80
2023-09-30T15:30:43.654Z,19.04
2023-09-30T15:32:46.450Z,18.92
2023-09-30T15:34:49.328Z,18.83
2023-09-30T15:36:52.047Z,18.83
2023-09-30T15:38:56.091Z,18.86
2023-09-30T15:40:59.657Z,18.62
2023-09-30T15:43:02.425Z,18.79
2023-09-30T15:45:04.939Z,18.68
2023-09-30T15:47:08.318Z,18.88
2023-09-30T15:49:10.160Z,18.70
2023-09-30T15:51:12.930Z,18.67
2023-09-30T15:53:16.775Z,18.68
2023-09-30T15:55:21.184Z,18.72
2023-09-30T15:57:23.896Z,18.70
2023-09-30T15:59:26.668Z,18.73
2023-09-30T16:01:29.385Z,18.75
2023-09-30T16:03:32.854Z,18.63
2023-09-30T16:05:37.905Z,18.55
2023-09-30T16:07:41.006Z,18.59
2023-09-30T16:09:43.780Z,18.88
2023-09-30T16:11:49.161Z,18.74
2023-09-30T16:13:52.885Z,18.54
2023-09-30T16:15:55.763Z,18.41
2023-09-30T16:17:57.645Z,18.34
2023-09-30T16:20:00.404Z,18.47
2023-09-30T16:22:03.556Z,18.56
2023-09-30T16:24:07.005Z,18.55
2023-09-30T16:26:09.669Z,18.32
2023-09-30T16:28:13.756Z,18.37
2023-09-30T16:30:16.932Z,18.24
2023-09-30T16:32:19.645Z,18.21
2023-09-30T16:34:22.402Z,18.12
2023-09-30T16:36:25.190Z,18.04
2023-09-30T16:38:26.991Z,18.06
2023-09-30T16:40:29.702Z,18.05
2023-09-30T16:42:33.449Z,18.00
2023-09-30T16:44:38.491Z,18.02
2023-09-30T16:46:41.388Z,17.96
2023-09-30T16:48:44.778Z,17.79
2023-09-30T16:50:48.438Z,17.73
2023-09-30T16:52:51.215Z,17.76
2023-09-30T16:54:54.016Z,17.68
2023-09-30T16:56:58.997Z,17.66
2023-09-30T16:59:02.629Z,17.49
2023-09-30T17:01:13.735Z,17.59
2023-09-30T17:03:16.608Z,17.47
2023-09-30T17:05:19.792Z,17.39
2023-09-30T17:07:22.907Z,17.34
2023-09-30T17:09:26.066Z,17.28
2023-09-30T17:11:29.093Z,17.25
2023-09-30T17:13:32.759Z,17.13
2023-09-30T17:15:37.010Z,17.19
2023-09-30T17:17:41.820Z,17.27
2023-09-30T17:19:44.807Z,17.20
2023-09-30T17:21:47.679Z,17.06
2023-09-30T17:23:50.709Z,17.09
2023-09-30T17:25:53.524Z,17.05
2023-09-30T17:27:55.304Z,17.10
2023-09-30T17:29:58.183Z,16.83
2023-09-30T17:32:04.516Z,16.78
2023-09-30T17:34:08.687Z,16.65
2023-09-30T17:36:11.622Z,16.56
2023-09-30T17:38:14.372Z,16.64
2023-09-30T17:40:17.541Z,16.68
2023-09-30T17:42:20.953Z,16.67
2023-09-30T17:44:24.131Z,16.63
2023-09-30T17:46:27.223Z,16.59
2023-09-30T17:48:29.971Z,16.54
2023-09-30T17:50:33.033Z,16.48
2023-09-30T17:52:35.909Z,16.45
2023-09-30T17:54:38.678Z,16.49
2023-09-30T17:56:42.359Z,16.38
2023-09-30T17:58:45.895Z,16.36
2023-09-30T18:00:50.451Z,16.45
2023-09-30T18:02:53.370Z,16.35
2023-09-30T18:04:56.350Z,16.25
2023-09-30T18:07:00.608Z,16.27
2023-09-30T18:09:03.735Z,16.24
2023-09-30T18:11:06.656Z,16.17
2023-09-30T18:13:09.415Z,16.13
2023-09-30T18:15:13.171Z,16.10
2023-09-30T18:17:16.065Z,16.04
2023-09-30T18:19:20.003Z,16.21
2023-09-30T18:21:22.947Z,16.11
2023-09-30T18:23:26.152Z,16.05
2023-09-30T18:25:29.314Z,16.14
2023-09-30T18:27:32.023Z,15.94
2023-09-30T18:29:34.717Z,15.86
2023-09-30T18:31:37.745Z,15.86
2023-09-30T18:33:40.551Z,15.83
2023-09-30T18:35:43.647Z,15.80
2023-09-30T18:37:46.330Z,15.86
2023-09-30T18:39:51.667Z,15.96
2023-09-30T18:41:54.734Z,15.94
2023-09-30T18:43:57.643Z,15.97
2023-09-30T18:46:00.667Z,15.92
2023-09-30T18:48:03.422Z,15.90
2023-09-30T18:50:07.457Z,15.92
2023-09-30T18:52:10.333Z,15.85
2023-09-30T18:54:13.349Z,15.74
2023-09-30T18:56:22.745Z,15.79
2023-09-30T18:58:25.477Z,15.76
2023-09-30T19:00:28.171Z,15.77
2023-09-30T19:02:30.964Z,15.77
2023-09-30T19:04:33.697Z,15.70
2023-09-30T19:06:36.466Z,15.64
2023-09-30T19:08:39.375Z,15.68
2023-09-30T19:10:42.650Z,15.68
2023-09-30T19:12:46.754Z,15.63
2023-09-30T19:14:49.522Z,15.49
2023-09-30T19:16:52.720Z,15.55
2023-09-30T19:18:56.466Z,15.51
2023-09-30T19:20:59.191Z,15.49
2023-09-30T19:23:01.909Z,15.53
2023-09-30T19:25:06.232Z,15.52
2023-09-30T19:27:09.088Z,15.41
2023-09-30T19:29:13.153Z,15.40
2023-09-30T19:31:16.930Z,15.30
2023-09-30T19:33:19.748Z,15.31
2023-09-30T19:35:23.893Z,15.33
2023-09-30T19:37:26.585Z,15.21
2023-09-30T19:39:30.071Z,15.22
2023-09-30T19:41:32.770Z,15.29
2023-09-30T19:43:35.455Z,15.32
2023-09-30T19:45:40.367Z,15.17
2023-09-30T19:47:43.264Z,15.14
2023-09-30T19:49:46.579Z,15.02
2023-09-30T19:51:49.153Z,15.06
2023-09-30T19:53:52.109Z,15.05
2023-09-30T19:55:54.960Z,15.11
2023-09-30T19:57:58.137Z,15.10
2023-09-30T20:00:01.127Z,15.10
2023-09-30T20:02:04.374Z,15.10
2023-09-30T20:04:07.836Z,15.16
2023-09-30T20:06:20.522Z,15.02
2023-09-30T20:08:23.218Z,14.82
2023-09-30T20:10:27.657Z,14.82
2023-09-30T20:12:30.477Z,14.82
2023-09-30T20:14:34.289Z,14.88
2023-09-30T20:16:37.224Z,14.77
2023-09-30T20:18:42.177Z,14.60
2023-09-30T20:20:44.822Z,14.56
2023-09-30T20:22:47.644Z,14.69
2023-09-30T20:24:56.005Z,14.65
2023-09-30T20:26:58.729Z,14.71
2023-09-30T20:29:02.875Z,14.61
2023-09-30T20:31:06.093Z,14.54
2023-09-30T20:33:08.981Z,14.57
2023-09-30T20:35:13.074Z,14.62
2023-09-30T20:37:15.841Z,14.52
2023-09-30T20:39:18.551Z,14.54
2023-09-30T20:41:21.503Z,14.54
2023-09-30T20:43:24.652Z,14.46
2023-09-30T20:45:27.292Z,14.30
2023-09-30T20:47:30.877Z,14.25
2023-09-30T20:49:33.985Z,14.19
2023-09-30T20:51:38.174Z,14.21
2023-09-30T20:53:41.789Z,14.15
2023-09-30T20:55:44.491Z,14.17
2023-09-30T20:57:47.165Z,14.23
2023-09-30T20:59:49.905Z,14.20
2023-09-30T21:01:53.147Z,14.13
2023-09-30T21:03:55.188Z,14.23
2023-09-30T21:05:57.993Z,14.03
2023-09-30T21:08:01.124Z,14.03
2023-09-30T21:10:03.878Z,14.14
2023-09-30T21:12:06.957Z,14.07
2023-09-30T21:14:09.944Z,14.10
2023-09-30T21:16:12.758Z,14.23
2023-09-30T21:18:15.509Z,14.21
2023-09-30T21:20:18.370Z,14.05
2023-09-30T21:22:21.121Z,14.07
2023-09-30T21:24:25.209Z,14.01
2023-09-30T21:26:28.006Z,14.05
2023-09-30T21:28:29.725Z,14.07
2023-09-30T21:30:32.464Z,14.04
2023-09-30T21:32:35.495Z,14.02
2023-09-30T21:34:38.266Z,14.00
2023-09-30T21:36:42.095Z,13.99
2023-09-30T21:38:45.093Z,14.02
2023-09-30T21:40:49.135Z,14.05
2023-09-30T21:42:51.891Z,14.13
2023-09-30T21:44:54.703Z,14.12
2023-09-30T21:46:57.432Z,13.97
2023-09-30T21:49:00.311Z,13.86
2023-09-30T21:51:03.341Z,13.83
2023-09-30T21:53:06.004Z,13.88
2023-09-30T21:55:10.092Z,13.88
2023-09-30T21:57:14.412Z,13.75
2023-09-30T21:59:17.098Z,13.75
2023-09-30T22:01:19.924Z,13.67
2023-09-30T22:03:24.980Z,13.67
2023-09-30T22:05:27.994Z,13.76
2023-09-30T22:07:32.800Z,13.80
2023-09-30T22:09:35.630Z,13.79
2023-09-30T22:11:38.549Z,13.81
2023-09-30T22:13:42.730Z,13.86
2023-09-30T22:15:45.555Z,13.83
2023-09-30T22:17:49.249Z,13.85
2023-09-30T22:19:53.606Z,13.89
2023-09-30T22:21:56.398Z,13.88
2023-09-30T22:23:59.131Z,13.84
2023-09-30T22:26:01.786Z,13.89
2023-09-30T22:28:06.647Z,13.80
2023-09-30T22:30:14.218Z,13.66
2023-09-30T22:32:17.442Z,13.58
2023-09-30T22:34:20.217Z,13.59
2023-09-30T22:36:33.174Z,13.74
2023-09-30T22:38:43.297Z,13.75
2023-09-30T22:40:47.836Z,13.72
2023-09-30T22:42:49.816Z,13.69
2023-09-30T22:44:52.562Z,13.51
2023-09-30T22:46:56.765Z,13.49
2023-09-30T22:49:00.536Z,13.54
2023-09-30T22:51:03.819Z,13.66
2023-09-30T22:53:07.979Z,13.61
2023-09-30T22:55:13.202Z,13.60
2023-09-30T22:57:16.023Z,13.52
2023-09-30T22:59:18.899Z,13.39
2023-09-30T23:01:25.593Z,13.49
2023-09-30T23:03:29.878Z,13.60
2023-09-30T23:05:33.783Z,13.57
2023-09-30T23:07:36.481Z,13.41
2023-09-30T23:09:39.209Z,13.52
2023-09-30T23:11:42.179Z,13.53
2023-09-30T23:13:45.763Z,13.41
2023-09-30T23:15:49.827Z,13.28
2023-09-30T23:17:53.051Z,13.35
2023-09-30T23:19:56.316Z,13.42
2023-09-30T23:22:00.339Z,13.47
2023-09-30T23:24:03.526Z,13.41
2023-09-30T23:26:09.314Z,13.32
2023-09-30T23:28:12.325Z,13.35
2023-09-30T23:30:18.310Z,13.36
2023-09-30T23:32:21.103Z,13.25
2023-09-30T23:34:24.411Z,13.26
2023-09-30T23:36:30.475Z,13.26
2023-09-30T23:38:33.974Z,13.17
2023-09-30T23:40:37.521Z,13.22
2023-09-30T23:42:43.152Z,13.23
2023-09-30T23:44:47.783Z,13.25
2023-09-30T23:46:51.204Z,13.30
2023-09-30T23:48:54.149Z,13.26
2023-09-30T23:50:56.959Z,13.20
2023-09-30T23:53:00.160Z,13.25
2023-09-30T23:55:10.886Z,13.09
2023-09-30T23:57:13.654Z,12.99
2023-09-30T23:59:18.847Z,12.93
